PWSweather.com
Personal Weather Stations
Station Observations
DW6359
Southwest Cambria, Cambria, WI 53923

Southwest CambriaCambria, WI 53923

Lat: 43.541194, Lon: -89.11275

Elevation: 945

Station Type: Davis Vantage Pro2

http://home.centurytel.net/weathercambria/wxcambria.html

High Low Average
Temperature 29.9°F-1.2°C 9.0°F-12.8°C 20.8°F-6.2°C
Dew Point 26.2°F-3.2°C -1.4°F-18.6°C 13.7°F-10.2°C
Winds 11.0 mph 17.7 kmh Calm Calm 5.0 mph SSW8.0 kmh SSW
Wind Gusts 15.0 mph24.1 kmh -- 2.0 mph3.2 kmh
Humidity 87% 61% 74%
Pressure 30.43 in1030.5 mb 29.93 in1013.5 mb -
Precipitation 0.00 in0.0 mm - -
Hour Temp Dew Point Humidity Winds Wind Gusts Pressure Precip Precip Rate Daily Precip Total
12:00 AM 8.0°F-13.3°C -1.3°F-18.5°C 65% 6.0 mph S9.7 kmh S -- 30.47 in1031.8 mb 0.00 in0.0 mm 0.00 in0.0 mm 0.00 in0.0 mm
12:05 AM 8.1°F-13.3°C -1.2°F-18.4°C 65% 9.0 mph SE14.5 kmh SE -- 30.46 in1031.5 mb 0.00 in0.0 mm 0.00 in0.0 mm 0.00 in0.0 mm
12:10 AM 8.2°F-13.2°C -1.4°F-18.6°C 64% 6.0 mph SSE9.7 kmh SSE -- 30.46 in1031.5 mb 0.00 in0.0 mm 0.00 in0.0 mm 0.00 in0.0 mm
12:15 AM 8.3°F-13.2°C -1.3°F-18.5°C 64% 5.0 mph S8.0 kmh S -- 30.46 in1031.5 mb 0.00 in0.0 mm 0.00 in0.0 mm 0.00 in0.0 mm
12:20 AM 8.5°F-13.1°C -0.8°F-18.2°C 65% 5.0 mph S8.0 kmh S -- 30.45 in1031.2 mb 0.00 in0.0 mm 0.00 in0.0 mm 0.00 in0.0 mm
12:25 AM 8.6°F-13.0°C -0.7°F-18.2°C 65% 7.0 mph S11.3 kmh S -- 30.45 in1031.2 mb 0.00 in0.0 mm 0.00 in0.0 mm 0.00 in0.0 mm
12:30 AM 8.7°F-12.9°C -0.9°F-18.3°C 64% 8.0 mph S12.9 kmh S -- 30.44 in1030.8 mb 0.00 in0.0 mm 0.00 in0.0 mm 0.00 in0.0 mm
12:35 AM 8.7°F-12.9°C -1.3°F-18.5°C 63% 7.0 mph S11.3 kmh S -- 30.44 in1030.8 mb 0.00 in0.0 mm 0.00 in0.0 mm 0.00 in0.0 mm
12:40 AM 8.8°F-12.9°C -1.2°F-18.4°C 63% 8.0 mph S12.9 kmh S 14.0 mph22.5 kmh 30.44 in1030.8 mb 0.00 in0.0 mm 0.00 in0.0 mm 0.00 in0.0 mm
12:45 AM 8.9°F-12.8°C -1.1°F-18.4°C 63% 4.0 mph SSE6.4 kmh SSE 14.0 mph22.5 kmh 30.44 in1030.8 mb 0.00 in0.0 mm 0.00 in0.0 mm 0.00 in0.0 mm
12:50 AM 9.0°F-12.8°C -1.0°F-18.3°C 63% 9.0 mph S14.5 kmh S -- 30.43 in1030.5 mb 0.00 in0.0 mm 0.00 in0.0 mm 0.00 in0.0 mm
12:55 AM 9.0°F-12.8°C -0.7°F-18.2°C 64% 4.0 mph S6.4 kmh S -- 30.43 in1030.5 mb 0.00 in0.0 mm 0.00 in0.0 mm 0.00 in0.0 mm
01:00 AM 9.0°F-12.8°C -1.0°F-18.3°C 63% 6.0 mph SSE9.7 kmh SSE -- 30.43 in1030.5 mb 0.00 in0.0 mm 0.00 in0.0 mm 0.00 in0.0 mm
01:05 AM 9.0°F-12.8°C -1.0°F-18.3°C 63% 10.0 mph S16.1 kmh S -- 30.43 in1030.5 mb 0.00 in0.0 mm 0.00 in0.0 mm 0.00 in0.0 mm
01:10 AM 9.0°F-12.8°C -1.0°F-18.3°C 63% 5.0 mph S8.0 kmh S -- 30.42 in1030.1 mb 0.00 in0.0 mm 0.00 in0.0 mm 0.00 in0.0 mm
01:15 AM 9.1°F-12.7°C -0.9°F-18.3°C 63% 6.0 mph SSE9.7 kmh SSE -- 30.42 in1030.1 mb 0.00 in0.0 mm 0.00 in0.0 mm 0.00 in0.0 mm
01:20 AM 9.1°F-12.7°C -0.9°F-18.3°C 63% 7.0 mph SSE11.3 kmh SSE -- 30.41 in1029.8 mb 0.00 in0.0 mm 0.00 in0.0 mm 0.00 in0.0 mm
01:25 AM 9.2°F-12.7°C -0.8°F-18.2°C 63% 4.0 mph S6.4 kmh S -- 30.41 in1029.8 mb 0.00 in0.0 mm 0.00 in0.0 mm 0.00 in0.0 mm
01:30 AM 9.2°F-12.7°C -0.8°F-18.2°C 63% 5.0 mph S8.0 kmh S 13.0 mph20.9 kmh 30.40 in1029.5 mb 0.00 in0.0 mm 0.00 in0.0 mm 0.00 in0.0 mm
01:35 AM 9.3°F-12.6°C -1.0°F-18.3°C 62% 7.0 mph S11.3 kmh S 13.0 mph20.9 kmh 30.40 in1029.5 mb 0.00 in0.0 mm 0.00 in0.0 mm 0.00 in0.0 mm
01:40 AM 9.4°F-12.6°C -1.0°F-18.3°C 62% 11.0 mph SSW17.7 kmh SSW -- 30.40 in1029.5 mb 0.00 in0.0 mm 0.00 in0.0 mm 0.00 in0.0 mm
01:45 AM 9.4°F-12.6°C -1.0°F-18.3°C 62% 4.0 mph S6.4 kmh S -- 30.39 in1029.1 mb 0.00 in0.0 mm 0.00 in0.0 mm 0.00 in0.0 mm
01:50 AM 9.4°F-12.6°C -1.0°F-18.3°C 62% 9.0 mph SSE14.5 kmh SSE -- 30.39 in1029.1 mb 0.00 in0.0 mm 0.00 in0.0 mm 0.00 in0.0 mm
01:55 AM 9.4°F-12.6°C -1.0°F-18.3°C 62% 3.0 mph S4.8 kmh S -- 30.39 in1029.1 mb 0.00 in0.0 mm 0.00 in0.0 mm 0.00 in0.0 mm
02:00 AM 9.4°F-12.6°C -1.3°F-18.5°C 61% 8.0 mph SE12.9 kmh SE -- 30.39 in1029.1 mb 0.00 in0.0 mm 0.00 in0.0 mm 0.00 in0.0 mm
02:05 AM 9.3°F-12.6°C -1.0°F-18.3°C 62% 3.0 mph SSE4.8 kmh SSE -- 30.38 in1028.8 mb 0.00 in0.0 mm 0.00 in0.0 mm 0.00 in0.0 mm
02:10 AM 9.3°F-12.6°C -1.4°F-18.6°C 61% 4.0 mph S6.4 kmh S -- 30.38 in1028.8 mb 0.00 in0.0 mm 0.00 in0.0 mm 0.00 in0.0 mm
02:15 AM 9.3°F-12.6°C -1.0°F-18.3°C 62% 5.0 mph SSE8.0 kmh SSE -- 30.37 in1028.4 mb 0.00 in0.0 mm 0.00 in0.0 mm 0.00 in0.0 mm
02:20 AM 9.3°F-12.6°C -1.0°F-18.3°C 62% 6.0 mph S9.7 kmh S 12.0 mph19.3 kmh 30.38 in1028.8 mb 0.00 in0.0 mm 0.00 in0.0 mm 0.00 in0.0 mm
02:25 AM 9.4°F-12.6°C -1.0°F-18.3°C 62% 4.0 mph S6.4 kmh S 12.0 mph19.3 kmh 30.37 in1028.4 mb 0.00 in0.0 mm 0.00 in0.0 mm 0.00 in0.0 mm
02:30 AM 9.4°F-12.6°C -1.0°F-18.3°C 62% 7.0 mph SSE11.3 kmh SSE -- 30.37 in1028.4 mb 0.00 in0.0 mm 0.00 in0.0 mm 0.00 in0.0 mm
02:35 AM 9.4°F-12.6°C -1.0°F-18.3°C 62% 7.0 mph S11.3 kmh S -- 30.36 in1028.1 mb 0.00 in0.0 mm 0.00 in0.0 mm 0.00 in0.0 mm
02:40 AM 9.5°F-12.5°C -0.9°F-18.3°C 62% 10.0 mph SSE16.1 kmh SSE -- 30.36 in1028.1 mb 0.00 in0.0 mm 0.00 in0.0 mm 0.00 in0.0 mm
02:45 AM 9.5°F-12.5°C -0.9°F-18.3°C 62% 7.0 mph S11.3 kmh S -- 30.36 in1028.1 mb 0.00 in0.0 mm 0.00 in0.0 mm 0.00 in0.0 mm
02:50 AM 9.6°F-12.4°C -0.4°F-18.0°C 63% 5.0 mph S8.0 kmh S -- 30.36 in1028.1 mb 0.00 in0.0 mm 0.00 in0.0 mm 0.00 in0.0 mm
02:55 AM 9.7°F-12.4°C -0.3°F-17.9°C 63% 2.0 mph SSE3.2 kmh SSE -- 30.36 in1028.1 mb 0.00 in0.0 mm 0.00 in0.0 mm 0.00 in0.0 mm
03:00 AM 9.8°F-12.3°C -0.2°F-17.9°C 63% 6.0 mph SE9.7 kmh SE -- 30.37 in1028.4 mb 0.00 in0.0 mm 0.00 in0.0 mm 0.00 in0.0 mm
03:05 AM 9.8°F-12.3°C -0.2°F-17.9°C 63% 4.0 mph SSW6.4 kmh SSW -- 30.36 in1028.1 mb 0.00 in0.0 mm 0.00 in0.0 mm 0.00 in0.0 mm
03:10 AM 9.9°F-12.3°C 0.2°F-17.7°C 64% 8.0 mph S12.9 kmh S 12.0 mph19.3 kmh 30.36 in1028.1 mb 0.00 in0.0 mm 0.00 in0.0 mm 0.00 in0.0 mm
03:15 AM 10.0°F-12.2°C 0.0°F-17.8°C 63% 9.0 mph S14.5 kmh S 12.0 mph19.3 kmh 30.35 in1027.8 mb 0.00 in0.0 mm 0.00 in0.0 mm 0.00 in0.0 mm
03:20 AM 10.1°F-12.2°C 0.4°F-17.6°C 64% 5.0 mph S8.0 kmh S -- 30.35 in1027.8 mb 0.00 in0.0 mm 0.00 in0.0 mm 0.00 in0.0 mm
03:25 AM 10.3°F-12.1°C 0.6°F-17.4°C 64% 2.0 mph S3.2 kmh S -- 30.36 in1028.1 mb 0.00 in0.0 mm 0.00 in0.0 mm 0.00 in0.0 mm
03:30 AM 10.4°F-12.0°C 0.7°F-17.4°C 64% 7.0 mph S11.3 kmh S -- 30.35 in1027.8 mb 0.00 in0.0 mm 0.00 in0.0 mm 0.00 in0.0 mm
03:35 AM 10.5°F-11.9°C 0.8°F-17.3°C 64% 6.0 mph S9.7 kmh S -- 30.35 in1027.8 mb 0.00 in0.0 mm 0.00 in0.0 mm 0.00 in0.0 mm
03:40 AM 10.7°F-11.8°C 1.0°F-17.2°C 64% 4.0 mph S6.4 kmh S -- 30.35 in1027.8 mb 0.00 in0.0 mm 0.00 in0.0 mm 0.00 in0.0 mm
03:45 AM 10.7°F-11.8°C 1.0°F-17.2°C 64% 11.0 mph SSE17.7 kmh SSE -- 30.34 in1027.4 mb 0.00 in0.0 mm 0.00 in0.0 mm 0.00 in0.0 mm
03:50 AM 10.8°F-11.8°C 1.1°F-17.2°C 64% 4.0 mph SSW6.4 kmh SSW -- 30.34 in1027.4 mb 0.00 in0.0 mm 0.00 in0.0 mm 0.00 in0.0 mm
03:55 AM 10.9°F-11.7°C 1.1°F-17.2°C 64% 7.0 mph S11.3 kmh S -- 30.34 in1027.4 mb 0.00 in0.0 mm 0.00 in0.0 mm 0.00 in0.0 mm
04:00 AM 10.9°F-11.7°C 1.1°F-17.2°C 64% 6.0 mph S9.7 kmh S 13.0 mph20.9 kmh 30.34 in1027.4 mb 0.00 in0.0 mm 0.00 in0.0 mm 0.00 in0.0 mm
04:05 AM 11.0°F-11.7°C 1.2°F-17.1°C 64% 6.0 mph S9.7 kmh S 13.0 mph20.9 kmh 30.34 in1027.4 mb 0.00 in0.0 mm 0.00 in0.0 mm 0.00 in0.0 mm
04:10 AM 11.2°F-11.6°C 1.4°F-17.0°C 64% 4.0 mph SSW6.4 kmh SSW -- 30.34 in1027.4 mb 0.00 in0.0 mm 0.00 in0.0 mm 0.00 in0.0 mm
04:15 AM 11.3°F-11.5°C 1.5°F-16.9°C 64% 6.0 mph SSW9.7 kmh SSW -- 30.34 in1027.4 mb 0.00 in0.0 mm 0.00 in0.0 mm 0.00 in0.0 mm
04:20 AM 11.4°F-11.4°C 1.3°F-17.1°C 63% 5.0 mph S8.0 kmh S -- 30.33 in1027.1 mb 0.00 in0.0 mm 0.00 in0.0 mm 0.00 in0.0 mm
04:25 AM 11.6°F-11.3°C 1.5°F-16.9°C 63% 5.0 mph SW8.0 kmh SW -- 30.33 in1027.1 mb 0.00 in0.0 mm 0.00 in0.0 mm 0.00 in0.0 mm
04:30 AM 11.5°F-11.4°C 2.4°F-16.4°C 66% 6.0 mph S9.7 kmh S -- 30.33 in1027.1 mb 0.00 in0.0 mm 0.00 in0.0 mm 0.00 in0.0 mm
04:35 AM 11.4°F-11.4°C 2.9°F-16.2°C 68% 6.0 mph SSW9.7 kmh SSW -- 30.32 in1026.8 mb 0.00 in0.0 mm 0.00 in0.0 mm 0.00 in0.0 mm
04:40 AM 11.4°F-11.4°C 3.5°F-15.8°C 70% 4.0 mph SW6.4 kmh SW -- 30.32 in1026.8 mb 0.00 in0.0 mm 0.00 in0.0 mm 0.00 in0.0 mm
04:45 AM 11.2°F-11.6°C 4.3°F-15.4°C 73% 5.0 mph SSE8.0 kmh SSE -- 30.32 in1026.8 mb 0.00 in0.0 mm 0.00 in0.0 mm 0.00 in0.0 mm
04:50 AM 11.2°F-11.6°C 5.1°F-14.9°C 76% 4.0 mph SSW6.4 kmh SSW 12.0 mph19.3 kmh 30.32 in1026.8 mb 0.00 in0.0 mm 0.00 in0.0 mm 0.00 in0.0 mm
04:55 AM 11.1°F-11.6°C 5.6°F-14.7°C 78% 2.0 mph SSW3.2 kmh SSW 12.0 mph19.3 kmh 30.32 in1026.8 mb 0.00 in0.0 mm 0.00 in0.0 mm 0.00 in0.0 mm
05:00 AM 10.9°F-11.7°C 5.7°F-14.6°C 79% 5.0 mph S8.0 kmh S -- 30.31 in1026.4 mb 0.00 in0.0 mm 0.00 in0.0 mm 0.00 in0.0 mm
05:05 AM 10.9°F-11.7°C 6.0°F-14.4°C 80% 6.0 mph SE9.7 kmh SE -- 30.31 in1026.4 mb 0.00 in0.0 mm 0.00 in0.0 mm 0.00 in0.0 mm
05:10 AM 11.0°F-11.7°C 6.1°F-14.4°C 80% 7.0 mph S11.3 kmh S -- 30.30 in1026.1 mb 0.00 in0.0 mm 0.00 in0.0 mm 0.00 in0.0 mm
05:15 AM 11.0°F-11.7°C 6.3°F-14.3°C 81% 4.0 mph S6.4 kmh S -- 30.30 in1026.1 mb 0.00 in0.0 mm 0.00 in0.0 mm 0.00 in0.0 mm
05:20 AM 11.2°F-11.6°C 6.5°F-14.2°C 81% 6.0 mph S9.7 kmh S -- 30.30 in1026.1 mb 0.00 in0.0 mm 0.00 in0.0 mm 0.00 in0.0 mm
05:25 AM 11.2°F-11.6°C 6.5°F-14.2°C 81% 4.0 mph S6.4 kmh S -- 30.29 in1025.7 mb 0.00 in0.0 mm 0.00 in0.0 mm 0.00 in0.0 mm
05:30 AM 11.4°F-11.4°C 6.7°F-14.1°C 81% 3.0 mph S4.8 kmh S -- 30.29 in1025.7 mb 0.00 in0.0 mm 0.00 in0.0 mm 0.00 in0.0 mm
05:35 AM 11.4°F-11.4°C 6.7°F-14.1°C 81% 2.0 mph S3.2 kmh S -- 30.29 in1025.7 mb 0.00 in0.0 mm 0.00 in0.0 mm 0.00 in0.0 mm
05:40 AM 11.5°F-11.4°C 6.8°F-14.0°C 81% 4.0 mph SSE6.4 kmh SSE 9.0 mph14.5 kmh 30.28 in1025.4 mb 0.00 in0.0 mm 0.00 in0.0 mm 0.00 in0.0 mm
05:45 AM 11.6°F-11.3°C 6.9°F-13.9°C 81% 3.0 mph S4.8 kmh S 9.0 mph14.5 kmh 30.28 in1025.4 mb 0.00 in0.0 mm 0.00 in0.0 mm 0.00 in0.0 mm
05:50 AM 11.7°F-11.3°C 7.0°F-13.9°C 81% 3.0 mph S4.8 kmh S -- 30.28 in1025.4 mb 0.00 in0.0 mm 0.00 in0.0 mm 0.00 in0.0 mm
05:55 AM 11.8°F-11.2°C 7.1°F-13.8°C 81% 5.0 mph S8.0 kmh S -- 30.28 in1025.4 mb 0.00 in0.0 mm 0.00 in0.0 mm 0.00 in0.0 mm
06:00 AM 11.9°F-11.2°C 7.2°F-13.8°C 81% 5.0 mph S8.0 kmh S -- 30.28 in1025.4 mb 0.00 in0.0 mm 0.00 in0.0 mm 0.00 in0.0 mm
06:05 AM 11.9°F-11.2°C 7.2°F-13.8°C 81% 3.0 mph S4.8 kmh S -- 30.27 in1025.1 mb 0.00 in0.0 mm 0.00 in0.0 mm 0.00 in0.0 mm
06:10 AM 12.0°F-11.1°C 7.3°F-13.7°C 81% 3.0 mph SSW4.8 kmh SSW -- 30.27 in1025.1 mb 0.00 in0.0 mm 0.00 in0.0 mm 0.00 in0.0 mm
06:15 AM 12.1°F-11.1°C 7.7°F-13.5°C 82% 6.0 mph SSW9.7 kmh SSW -- 30.26 in1024.7 mb 0.00 in0.0 mm 0.00 in0.0 mm 0.00 in0.0 mm
06:20 AM 12.1°F-11.1°C 7.4°F-13.7°C 81% 5.0 mph SSE8.0 kmh SSE -- 30.26 in1024.7 mb 0.00 in0.0 mm 0.00 in0.0 mm 0.00 in0.0 mm
06:25 AM 12.2°F-11.0°C 7.5°F-13.6°C 81% 5.0 mph S8.0 kmh S -- 30.26 in1024.7 mb 0.00 in0.0 mm 0.00 in0.0 mm 0.00 in0.0 mm
06:30 AM 12.2°F-11.0°C 7.5°F-13.6°C 81% 5.0 mph S8.0 kmh S 10.0 mph16.1 kmh 30.25 in1024.4 mb 0.00 in0.0 mm 0.00 in0.0 mm 0.00 in0.0 mm
06:35 AM 12.1°F-11.1°C 7.4°F-13.7°C 81% 8.0 mph S12.9 kmh S 10.0 mph16.1 kmh 30.25 in1024.4 mb 0.00 in0.0 mm 0.00 in0.0 mm 0.00 in0.0 mm
06:40 AM 12.2°F-11.0°C 7.5°F-13.6°C 81% 6.0 mph SW9.7 kmh SW -- 30.25 in1024.4 mb 0.00 in0.0 mm 0.00 in0.0 mm 0.00 in0.0 mm
06:45 AM 12.2°F-11.0°C 7.5°F-13.6°C 81% 5.0 mph S8.0 kmh S -- 30.24 in1024.0 mb 0.00 in0.0 mm 0.00 in0.0 mm 0.00 in0.0 mm
06:50 AM 12.2°F-11.0°C 7.5°F-13.6°C 81% 2.0 mph S3.2 kmh S -- 30.25 in1024.4 mb 0.00 in0.0 mm 0.00 in0.0 mm 0.00 in0.0 mm
06:55 AM 12.3°F-10.9°C 7.6°F-13.6°C 81% 4.0 mph SSE6.4 kmh SSE -- 30.24 in1024.0 mb 0.00 in0.0 mm 0.00 in0.0 mm 0.00 in0.0 mm
07:00 AM 12.5°F-10.8°C 7.8°F-13.4°C 81% 1.0 mph S1.6 kmh S -- 30.24 in1024.0 mb 0.00 in0.0 mm 0.00 in0.0 mm 0.00 in0.0 mm
07:05 AM 12.6°F-10.8°C 7.6°F-13.6°C 80% 2.0 mph S3.2 kmh S -- 30.24 in1024.0 mb 0.00 in0.0 mm 0.00 in0.0 mm 0.00 in0.0 mm
07:10 AM 12.7°F-10.7°C 7.7°F-13.5°C 80% 7.0 mph SSW11.3 kmh SSW -- 30.24 in1024.0 mb 0.00 in0.0 mm 0.00 in0.0 mm 0.00 in0.0 mm
07:15 AM 12.8°F-10.7°C 7.5°F-13.6°C 79% 5.0 mph S8.0 kmh S -- 30.23 in1023.7 mb 0.00 in0.0 mm 0.00 in0.0 mm 0.00 in0.0 mm
07:20 AM 13.0°F-10.6°C 7.5°F-13.6°C 78% 3.0 mph S4.8 kmh S 11.0 mph17.7 kmh 30.23 in1023.7 mb 0.00 in0.0 mm 0.00 in0.0 mm 0.00 in0.0 mm
07:25 AM 13.1°F-10.5°C 7.6°F-13.6°C 78% 5.0 mph S8.0 kmh S 11.0 mph17.7 kmh 30.23 in1023.7 mb 0.00 in0.0 mm 0.00 in0.0 mm 0.00 in0.0 mm
07:30 AM 13.2°F-10.4°C 7.6°F-13.6°C 78% 4.0 mph SSE6.4 kmh SSE -- 30.23 in1023.7 mb 0.00 in0.0 mm 0.00 in0.0 mm 0.00 in0.0 mm
07:35 AM 13.3°F-10.4°C 7.5°F-13.6°C 77% 9.0 mph S14.5 kmh S -- 30.22 in1023.4 mb 0.00 in0.0 mm 0.00 in0.0 mm 0.00 in0.0 mm
07:40 AM 13.3°F-10.4°C 7.5°F-13.6°C 77% 6.0 mph SW9.7 kmh SW -- 30.23 in1023.7 mb 0.00 in0.0 mm 0.00 in0.0 mm 0.00 in0.0 mm
07:45 AM 13.3°F-10.4°C 7.2°F-13.8°C 76% 4.0 mph S6.4 kmh S -- 30.23 in1023.7 mb 0.00 in0.0 mm 0.00 in0.0 mm 0.00 in0.0 mm
07:50 AM 13.3°F-10.4°C 7.2°F-13.8°C 76% 8.0 mph S12.9 kmh S -- 30.22 in1023.4 mb 0.00 in0.0 mm 0.00 in0.0 mm 0.00 in0.0 mm
07:55 AM 13.4°F-10.3°C 7.3°F-13.7°C 76% 2.0 mph S3.2 kmh S -- 30.22 in1023.4 mb 0.00 in0.0 mm 0.00 in0.0 mm 0.00 in0.0 mm
08:00 AM 13.4°F-10.3°C 7.3°F-13.7°C 76% 3.0 mph S4.8 kmh S -- 30.22 in1023.4 mb 0.00 in0.0 mm 0.00 in0.0 mm 0.00 in0.0 mm
08:05 AM 13.6°F-10.2°C 7.5°F-13.6°C 76% 3.0 mph S4.8 kmh S -- 30.22 in1023.4 mb 0.00 in0.0 mm 0.00 in0.0 mm 0.00 in0.0 mm
08:10 AM 13.7°F-10.2°C 7.6°F-13.6°C 76% 2.0 mph S3.2 kmh S 10.0 mph16.1 kmh 30.22 in1023.4 mb 0.00 in0.0 mm 0.00 in0.0 mm 0.00 in0.0 mm
08:15 AM 13.8°F-10.1°C 7.4°F-13.7°C 75% 5.0 mph S8.0 kmh S 10.0 mph16.1 kmh 30.21 in1023.0 mb 0.00 in0.0 mm 0.00 in0.0 mm 0.00 in0.0 mm
08:20 AM 13.9°F-10.1°C 7.2°F-13.8°C 74% 4.0 mph S6.4 kmh S -- 30.22 in1023.4 mb 0.00 in0.0 mm 0.00 in0.0 mm 0.00 in0.0 mm
08:25 AM 14.0°F-10.0°C 7.3°F-13.7°C 74% 5.0 mph SSW8.0 kmh SSW -- 30.21 in1023.0 mb 0.00 in0.0 mm 0.00 in0.0 mm 0.00 in0.0 mm
08:30 AM 14.0°F-10.0°C 7.3°F-13.7°C 74% 3.0 mph SSW4.8 kmh SSW -- 30.21 in1023.0 mb 0.00 in0.0 mm 0.00 in0.0 mm 0.00 in0.0 mm
08:35 AM 14.1°F-9.9°C 7.1°F-13.8°C 73% 5.0 mph S8.0 kmh S -- 30.21 in1023.0 mb 0.00 in0.0 mm 0.00 in0.0 mm 0.00 in0.0 mm
08:40 AM 14.1°F-9.9°C 7.1°F-13.8°C 73% 3.0 mph S4.8 kmh S -- 30.21 in1023.0 mb 0.00 in0.0 mm 0.00 in0.0 mm 0.00 in0.0 mm
08:45 AM 14.1°F-9.9°C 7.1°F-13.8°C 73% 4.0 mph S6.4 kmh S -- 30.20 in1022.7 mb 0.00 in0.0 mm 0.00 in0.0 mm 0.00 in0.0 mm
08:50 AM 14.2°F-9.9°C 7.2°F-13.8°C 73% 4.0 mph S6.4 kmh S -- 30.21 in1023.0 mb 0.00 in0.0 mm 0.00 in0.0 mm 0.00 in0.0 mm
08:55 AM 14.2°F-9.9°C 6.9°F-13.9°C 72% 2.0 mph S3.2 kmh S -- 30.21 in1023.0 mb 0.00 in0.0 mm 0.00 in0.0 mm 0.00 in0.0 mm
09:00 AM 14.3°F-9.8°C 7.3°F-13.7°C 73% 1.0 mph SSE1.6 kmh SSE 10.0 mph16.1 kmh 30.21 in1023.0 mb 0.00 in0.0 mm 0.00 in0.0 mm 0.00 in0.0 mm
09:05 AM 14.4°F-9.8°C 7.4°F-13.7°C 73% 3.0 mph S4.8 kmh S 10.0 mph16.1 kmh 30.20 in1022.7 mb 0.00 in0.0 mm 0.00 in0.0 mm 0.00 in0.0 mm
09:10 AM 14.6°F-9.7°C 7.5°F-13.6°C 73% 5.0 mph SE8.0 kmh SE -- 30.20 in1022.7 mb 0.00 in0.0 mm 0.00 in0.0 mm 0.00 in0.0 mm
09:15 AM 14.8°F-9.6°C 7.4°F-13.7°C 72% 5.0 mph S8.0 kmh S -- 30.20 in1022.7 mb 0.00 in0.0 mm 0.00 in0.0 mm 0.00 in0.0 mm
09:20 AM 15.0°F-9.4°C 7.6°F-13.6°C 72% 7.0 mph S11.3 kmh S -- 30.20 in1022.7 mb 0.00 in0.0 mm 0.00 in0.0 mm 0.00 in0.0 mm
09:25 AM 15.2°F-9.3°C 7.5°F-13.6°C 71% 6.0 mph S9.7 kmh S -- 30.20 in1022.7 mb 0.00 in0.0 mm 0.00 in0.0 mm 0.00 in0.0 mm
09:30 AM 15.4°F-9.2°C 7.7°F-13.5°C 71% 4.0 mph S6.4 kmh S -- 30.20 in1022.7 mb 0.00 in0.0 mm 0.00 in0.0 mm 0.00 in0.0 mm
09:35 AM 15.6°F-9.1°C 7.9°F-13.4°C 71% 7.0 mph SSW11.3 kmh SSW -- 30.20 in1022.7 mb 0.00 in0.0 mm 0.00 in0.0 mm 0.00 in0.0 mm
09:40 AM 15.7°F-9.1°C 7.7°F-13.5°C 70% 3.0 mph SSW4.8 kmh SSW -- 30.19 in1022.4 mb 0.00 in0.0 mm 0.00 in0.0 mm 0.00 in0.0 mm
09:45 AM 15.9°F-8.9°C 8.2°F-13.2°C 71% 6.0 mph SSW9.7 kmh SSW -- 30.19 in1022.4 mb 0.00 in0.0 mm 0.00 in0.0 mm 0.00 in0.0 mm
09:50 AM 16.1°F-8.8°C 8.1°F-13.3°C 70% 5.0 mph SSW8.0 kmh SSW 11.0 mph17.7 kmh 30.19 in1022.4 mb 0.00 in0.0 mm 0.00 in0.0 mm 0.00 in0.0 mm
09:55 AM 16.3°F-8.7°C 8.3°F-13.2°C 70% 6.0 mph SW9.7 kmh SW 11.0 mph17.7 kmh 30.19 in1022.4 mb 0.00 in0.0 mm 0.00 in0.0 mm 0.00 in0.0 mm
10:00 AM 16.5°F-8.6°C 8.5°F-13.1°C 70% 4.0 mph S6.4 kmh S -- 30.19 in1022.4 mb 0.00 in0.0 mm 0.00 in0.0 mm 0.00 in0.0 mm
10:05 AM 16.8°F-8.4°C 8.7°F-12.9°C 70% 6.0 mph SSW9.7 kmh SSW -- 30.19 in1022.4 mb 0.00 in0.0 mm 0.00 in0.0 mm 0.00 in0.0 mm
10:10 AM 17.0°F-8.3°C 8.9°F-12.8°C 70% 6.0 mph SSW9.7 kmh SSW -- 30.19 in1022.4 mb 0.00 in0.0 mm 0.00 in0.0 mm 0.00 in0.0 mm
10:15 AM 17.2°F-8.2°C 9.1°F-12.7°C 70% 3.0 mph SSW4.8 kmh SSW -- 30.19 in1022.4 mb 0.00 in0.0 mm 0.00 in0.0 mm 0.00 in0.0 mm
10:20 AM 17.4°F-8.1°C 9.3°F-12.6°C 70% 5.0 mph SSW8.0 kmh SSW -- 30.19 in1022.4 mb 0.00 in0.0 mm 0.00 in0.0 mm 0.00 in0.0 mm
10:25 AM 17.6°F-8.0°C 9.2°F-12.7°C 69% 5.0 mph SW8.0 kmh SW -- 30.19 in1022.4 mb 0.00 in0.0 mm 0.00 in0.0 mm 0.00 in0.0 mm
10:30 AM 17.7°F-7.9°C 9.3°F-12.6°C 69% 3.0 mph S4.8 kmh S -- 30.19 in1022.4 mb 0.00 in0.0 mm 0.00 in0.0 mm 0.00 in0.0 mm
10:35 AM 17.9°F-7.8°C 9.5°F-12.5°C 69% 5.0 mph SW8.0 kmh SW -- 30.19 in1022.4 mb 0.00 in0.0 mm 0.00 in0.0 mm 0.00 in0.0 mm
10:40 AM 18.0°F-7.8°C 9.6°F-12.4°C 69% 2.0 mph SSW3.2 kmh SSW 10.0 mph16.1 kmh 30.19 in1022.4 mb 0.00 in0.0 mm 0.00 in0.0 mm 0.00 in0.0 mm
10:45 AM 18.1°F-7.7°C 9.7°F-12.4°C 69% 2.0 mph S3.2 kmh S 10.0 mph16.1 kmh 30.18 in1022.0 mb 0.00 in0.0 mm 0.00 in0.0 mm 0.00 in0.0 mm
10:50 AM 18.3°F-7.6°C 10.2°F-12.1°C 70% 7.0 mph SSW11.3 kmh SSW -- 30.18 in1022.0 mb 0.00 in0.0 mm 0.00 in0.0 mm 0.00 in0.0 mm
10:55 AM 18.5°F-7.5°C 10.1°F-12.2°C 69% 6.0 mph S9.7 kmh S -- 30.18 in1022.0 mb 0.00 in0.0 mm 0.00 in0.0 mm 0.00 in0.0 mm
11:00 AM 18.6°F-7.4°C 10.5°F-11.9°C 70% 6.0 mph S9.7 kmh S -- 30.18 in1022.0 mb 0.00 in0.0 mm 0.00 in0.0 mm 0.00 in0.0 mm
11:05 AM 18.6°F-7.4°C 10.1°F-12.2°C 69% 7.0 mph SSW11.3 kmh SSW -- 30.18 in1022.0 mb 0.00 in0.0 mm 0.00 in0.0 mm 0.00 in0.0 mm
11:10 AM 18.8°F-7.3°C 10.3°F-12.1°C 69% 4.0 mph SSW6.4 kmh SSW -- 30.18 in1022.0 mb 0.00 in0.0 mm 0.00 in0.0 mm 0.00 in0.0 mm
11:15 AM 18.9°F-7.3°C 10.8°F-11.8°C 70% 5.0 mph S8.0 kmh S -- 30.17 in1021.7 mb 0.00 in0.0 mm 0.00 in0.0 mm 0.00 in0.0 mm
11:20 AM 19.1°F-7.2°C 10.6°F-11.9°C 69% 5.0 mph SW8.0 kmh SW -- 30.17 in1021.7 mb 0.00 in0.0 mm 0.00 in0.0 mm 0.00 in0.0 mm
11:25 AM 19.3°F-7.1°C 11.1°F-11.6°C 70% 5.0 mph S8.0 kmh S -- 30.17 in1021.7 mb 0.00 in0.0 mm 0.00 in0.0 mm 0.00 in0.0 mm
11:30 AM 19.4°F-7.0°C 11.2°F-11.6°C 70% 6.0 mph SW9.7 kmh SW 9.0 mph14.5 kmh 30.16 in1021.3 mb 0.00 in0.0 mm 0.00 in0.0 mm 0.00 in0.0 mm
11:35 AM 19.5°F-6.9°C 11.3°F-11.5°C 70% 5.0 mph SSW8.0 kmh SSW 9.0 mph14.5 kmh 30.16 in1021.3 mb 0.00 in0.0 mm 0.00 in0.0 mm 0.00 in0.0 mm
11:40 AM 19.6°F-6.9°C 11.4°F-11.4°C 70% 3.0 mph S4.8 kmh S -- 30.16 in1021.3 mb 0.00 in0.0 mm 0.00 in0.0 mm 0.00 in0.0 mm
11:45 AM 19.8°F-6.8°C 11.3°F-11.5°C 69% 8.0 mph SW12.9 kmh SW -- 30.15 in1021.0 mb 0.00 in0.0 mm 0.00 in0.0 mm 0.00 in0.0 mm
11:50 AM 19.9°F-6.7°C 11.7°F-11.3°C 70% 5.0 mph SSW8.0 kmh SSW -- 30.15 in1021.0 mb 0.00 in0.0 mm 0.00 in0.0 mm 0.00 in0.0 mm
11:55 AM 20.1°F-6.6°C 11.9°F-11.2°C 70% 6.0 mph SW9.7 kmh SW -- 30.14 in1020.7 mb 0.00 in0.0 mm 0.00 in0.0 mm 0.00 in0.0 mm
12:00 PM 20.2°F-6.6°C 12.0°F-11.1°C 70% 4.0 mph SSW6.4 kmh SSW -- 30.14 in1020.7 mb 0.00 in0.0 mm 0.00 in0.0 mm 0.00 in0.0 mm
12:05 PM 20.3°F-6.5°C 11.8°F-11.2°C 69% 2.0 mph S3.2 kmh S -- 30.14 in1020.7 mb 0.00 in0.0 mm 0.00 in0.0 mm 0.00 in0.0 mm
12:10 PM 20.6°F-6.3°C 12.4°F-10.9°C 70% 7.0 mph SSW11.3 kmh SSW -- 30.14 in1020.7 mb 0.00 in0.0 mm 0.00 in0.0 mm 0.00 in0.0 mm
12:15 PM 20.7°F-6.3°C 12.2°F-11.0°C 69% 6.0 mph SSW9.7 kmh SSW -- 30.13 in1020.3 mb 0.00 in0.0 mm 0.00 in0.0 mm 0.00 in0.0 mm
12:20 PM 20.8°F-6.2°C 12.3°F-10.9°C 69% 6.0 mph SSW9.7 kmh SSW 15.0 mph24.1 kmh 30.12 in1020.0 mb 0.00 in0.0 mm 0.00 in0.0 mm 0.00 in0.0 mm
12:25 PM 20.8°F-6.2°C 12.6°F-10.8°C 70% 5.0 mph SSW8.0 kmh SSW 15.0 mph24.1 kmh 30.12 in1020.0 mb 0.00 in0.0 mm 0.00 in0.0 mm 0.00 in0.0 mm
12:30 PM 21.0°F-6.1°C 12.8°F-10.7°C 70% 5.0 mph SSW8.0 kmh SSW -- 30.12 in1020.0 mb 0.00 in0.0 mm 0.00 in0.0 mm 0.00 in0.0 mm
12:35 PM 21.2°F-6.0°C 13.0°F-10.6°C 70% 7.0 mph SSW11.3 kmh SSW -- 30.11 in1019.6 mb 0.00 in0.0 mm 0.00 in0.0 mm 0.00 in0.0 mm
12:40 PM 21.5°F-5.8°C 13.3°F-10.4°C 70% 6.0 mph SSW9.7 kmh SSW -- 30.11 in1019.6 mb 0.00 in0.0 mm 0.00 in0.0 mm 0.00 in0.0 mm
12:45 PM 21.6°F-5.8°C 13.4°F-10.3°C 70% 8.0 mph S12.9 kmh S -- 30.11 in1019.6 mb 0.00 in0.0 mm 0.00 in0.0 mm 0.00 in0.0 mm
12:50 PM 21.8°F-5.7°C 13.5°F-10.3°C 70% 5.0 mph S8.0 kmh S -- 30.10 in1019.3 mb 0.00 in0.0 mm 0.00 in0.0 mm 0.00 in0.0 mm
12:55 PM 22.0°F-5.6°C 13.7°F-10.2°C 70% 4.0 mph S6.4 kmh S -- 30.10 in1019.3 mb 0.00 in0.0 mm 0.00 in0.0 mm 0.00 in0.0 mm
01:00 PM 22.2°F-5.4°C 13.6°F-10.2°C 69% 5.0 mph SSW8.0 kmh SSW -- 30.09 in1019.0 mb 0.00 in0.0 mm 0.00 in0.0 mm 0.00 in0.0 mm
01:05 PM 22.2°F-5.4°C 13.6°F-10.2°C 69% 4.0 mph SW6.4 kmh SW -- 30.09 in1019.0 mb 0.00 in0.0 mm 0.00 in0.0 mm 0.00 in0.0 mm
01:10 PM 22.4°F-5.3°C 14.1°F-9.9°C 70% 3.0 mph SSW4.8 kmh SSW 10.0 mph16.1 kmh 30.08 in1018.6 mb 0.00 in0.0 mm 0.00 in0.0 mm 0.00 in0.0 mm
01:15 PM 22.7°F-5.2°C 14.4°F-9.8°C 70% 2.0 mph SSW3.2 kmh SSW 10.0 mph16.1 kmh 30.08 in1018.6 mb 0.00 in0.0 mm 0.00 in0.0 mm 0.00 in0.0 mm
01:20 PM 23.0°F-5.0°C 14.7°F-9.6°C 70% 2.0 mph SSW3.2 kmh SSW -- 30.07 in1018.3 mb 0.00 in0.0 mm 0.00 in0.0 mm 0.00 in0.0 mm
01:25 PM 23.3°F-4.8°C 15.0°F-9.4°C 70% 5.0 mph SSW8.0 kmh SSW -- 30.07 in1018.3 mb 0.00 in0.0 mm 0.00 in0.0 mm 0.00 in0.0 mm
01:30 PM 23.5°F-4.7°C 14.9°F-9.5°C 69% 3.0 mph S4.8 kmh S -- 30.07 in1018.3 mb 0.00 in0.0 mm 0.00 in0.0 mm 0.00 in0.0 mm
01:35 PM 23.7°F-4.6°C 15.0°F-9.4°C 69% 4.0 mph SW6.4 kmh SW -- 30.07 in1018.3 mb 0.00 in0.0 mm 0.00 in0.0 mm 0.00 in0.0 mm
01:40 PM 23.8°F-4.6°C 15.1°F-9.4°C 69% 9.0 mph SW14.5 kmh SW -- 30.07 in1018.3 mb 0.00 in0.0 mm 0.00 in0.0 mm 0.00 in0.0 mm
01:45 PM 24.0°F-4.4°C 15.3°F-9.3°C 69% 6.0 mph S9.7 kmh S -- 30.06 in1017.9 mb 0.00 in0.0 mm 0.00 in0.0 mm 0.00 in0.0 mm
01:50 PM 24.2°F-4.3°C 15.9°F-8.9°C 70% 5.0 mph SSW8.0 kmh SSW -- 30.06 in1017.9 mb 0.00 in0.0 mm 0.00 in0.0 mm 0.00 in0.0 mm
01:55 PM 24.5°F-4.2°C 16.1°F-8.8°C 70% 3.0 mph SW4.8 kmh SW -- 30.05 in1017.6 mb 0.00 in0.0 mm 0.00 in0.0 mm 0.00 in0.0 mm
02:00 PM 24.9°F-3.9°C 16.5°F-8.6°C 70% 6.0 mph SW9.7 kmh SW 9.0 mph14.5 kmh 30.05 in1017.6 mb 0.00 in0.0 mm 0.00 in0.0 mm 0.00 in0.0 mm
02:05 PM 25.2°F-3.8°C 16.5°F-8.6°C 69% 6.0 mph SSW9.7 kmh SSW 9.0 mph14.5 kmh 30.05 in1017.6 mb 0.00 in0.0 mm 0.00 in0.0 mm 0.00 in0.0 mm
02:10 PM 25.6°F-3.6°C 16.9°F-8.4°C 69% 5.0 mph SSW8.0 kmh SSW -- 30.04 in1017.3 mb 0.00 in0.0 mm 0.00 in0.0 mm 0.00 in0.0 mm
02:15 PM 25.8°F-3.4°C 17.1°F-8.3°C 69% 7.0 mph SW11.3 kmh SW -- 30.04 in1017.3 mb 0.00 in0.0 mm 0.00 in0.0 mm 0.00 in0.0 mm
02:20 PM 26.2°F-3.2°C 17.1°F-8.3°C 68% 6.0 mph SW9.7 kmh SW -- 30.04 in1017.3 mb 0.00 in0.0 mm 0.00 in0.0 mm 0.00 in0.0 mm
02:25 PM 26.5°F-3.1°C 17.4°F-8.1°C 68% 10.0 mph SW16.1 kmh SW -- 30.03 in1016.9 mb 0.00 in0.0 mm 0.00 in0.0 mm 0.00 in0.0 mm
02:30 PM 26.7°F-2.9°C 17.6°F-8.0°C 68% 7.0 mph SSW11.3 kmh SSW -- 30.03 in1016.9 mb 0.00 in0.0 mm 0.00 in0.0 mm 0.00 in0.0 mm
02:35 PM 26.9°F-2.8°C 17.8°F-7.9°C 68% 7.0 mph SSW11.3 kmh SSW -- 30.03 in1016.9 mb 0.00 in0.0 mm 0.00 in0.0 mm 0.00 in0.0 mm
02:40 PM 27.1°F-2.7°C 18.0°F-7.8°C 68% 5.0 mph S8.0 kmh S -- 30.02 in1016.6 mb 0.00 in0.0 mm 0.00 in0.0 mm 0.00 in0.0 mm
02:45 PM 27.2°F-2.7°C 17.4°F-8.1°C 66% 7.0 mph SSW11.3 kmh SSW -- 30.02 in1016.6 mb 0.00 in0.0 mm 0.00 in0.0 mm 0.00 in0.0 mm
02:50 PM 27.3°F-2.6°C 17.8°F-7.9°C 67% 6.0 mph SW9.7 kmh SW 14.0 mph22.5 kmh 30.02 in1016.6 mb 0.00 in0.0 mm 0.00 in0.0 mm 0.00 in0.0 mm
02:55 PM 27.4°F-2.6°C 18.3°F-7.6°C 68% 4.0 mph SSW6.4 kmh SSW 14.0 mph22.5 kmh 30.02 in1016.6 mb 0.00 in0.0 mm 0.00 in0.0 mm 0.00 in0.0 mm
03:00 PM 27.8°F-2.3°C 18.3°F-7.6°C 67% 8.0 mph SW12.9 kmh SW -- 30.01 in1016.3 mb 0.00 in0.0 mm 0.00 in0.0 mm 0.00 in0.0 mm
03:05 PM 27.8°F-2.3°C 18.3°F-7.6°C 67% 5.0 mph S8.0 kmh S -- 30.01 in1016.3 mb 0.00 in0.0 mm 0.00 in0.0 mm 0.00 in0.0 mm
03:10 PM 27.9°F-2.3°C 18.7°F-7.4°C 68% 6.0 mph S9.7 kmh S -- 30.02 in1016.6 mb 0.00 in0.0 mm 0.00 in0.0 mm 0.00 in0.0 mm
03:15 PM 27.8°F-2.3°C 18.3°F-7.6°C 67% 7.0 mph SSW11.3 kmh SSW -- 30.02 in1016.6 mb 0.00 in0.0 mm 0.00 in0.0 mm 0.00 in0.0 mm
03:20 PM 27.6°F-2.4°C 18.1°F-7.7°C 67% 5.0 mph SW8.0 kmh SW -- 30.02 in1016.6 mb 0.00 in0.0 mm 0.00 in0.0 mm 0.00 in0.0 mm
03:25 PM 27.6°F-2.4°C 18.1°F-7.7°C 67% 5.0 mph SW8.0 kmh SW -- 30.02 in1016.6 mb 0.00 in0.0 mm 0.00 in0.0 mm 0.00 in0.0 mm
03:30 PM 27.5°F-2.5°C 18.0°F-7.8°C 67% 7.0 mph SW11.3 kmh SW -- 30.02 in1016.6 mb 0.00 in0.0 mm 0.00 in0.0 mm 0.00 in0.0 mm
03:35 PM 27.3°F-2.6°C 18.2°F-7.7°C 68% 5.0 mph S8.0 kmh S -- 30.02 in1016.6 mb 0.00 in0.0 mm 0.00 in0.0 mm 0.00 in0.0 mm
03:40 PM 27.2°F-2.7°C 18.1°F-7.7°C 68% 4.0 mph SSW6.4 kmh SSW 9.0 mph14.5 kmh 30.02 in1016.6 mb 0.00 in0.0 mm 0.00 in0.0 mm 0.00 in0.0 mm
03:45 PM 27.1°F-2.7°C 18.0°F-7.8°C 68% 7.0 mph SW11.3 kmh SW 9.0 mph14.5 kmh 30.02 in1016.6 mb 0.00 in0.0 mm 0.00 in0.0 mm 0.00 in0.0 mm
03:50 PM 26.9°F-2.8°C 17.8°F-7.9°C 68% 6.0 mph SW9.7 kmh SW -- 30.01 in1016.3 mb 0.00 in0.0 mm 0.00 in0.0 mm 0.00 in0.0 mm
03:55 PM 26.8°F-2.9°C 17.7°F-7.9°C 68% 8.0 mph SW12.9 kmh SW -- 30.01 in1016.3 mb 0.00 in0.0 mm 0.00 in0.0 mm 0.00 in0.0 mm
04:00 PM 26.8°F-2.9°C 18.0°F-7.8°C 69% 6.0 mph SW9.7 kmh SW -- 30.01 in1016.3 mb 0.00 in0.0 mm 0.00 in0.0 mm 0.00 in0.0 mm
04:05 PM 26.8°F-2.9°C 18.0°F-7.8°C 69% 5.0 mph SW8.0 kmh SW -- 30.01 in1016.3 mb 0.00 in0.0 mm 0.00 in0.0 mm 0.00 in0.0 mm
04:10 PM 26.8°F-2.9°C 18.0°F-7.8°C 69% 1.0 mph SW1.6 kmh SW -- 30.01 in1016.3 mb 0.00 in0.0 mm 0.00 in0.0 mm 0.00 in0.0 mm
04:15 PM 26.8°F-2.9°C 18.3°F-7.6°C 70% 2.0 mph SW3.2 kmh SW -- 30.01 in1016.3 mb 0.00 in0.0 mm 0.00 in0.0 mm 0.00 in0.0 mm
04:20 PM 26.8°F-2.9°C 18.3°F-7.6°C 70% 5.0 mph SW8.0 kmh SW -- 30.01 in1016.3 mb 0.00 in0.0 mm 0.00 in0.0 mm 0.00 in0.0 mm
04:25 PM 26.8°F-2.9°C 18.3°F-7.6°C 70% 3.0 mph SW4.8 kmh SW -- 30.01 in1016.3 mb 0.00 in0.0 mm 0.00 in0.0 mm 0.00 in0.0 mm
04:30 PM 26.9°F-2.8°C 18.4°F-7.6°C 70% 2.0 mph SW3.2 kmh SW 6.0 mph9.7 kmh 30.01 in1016.3 mb 0.00 in0.0 mm 0.00 in0.0 mm 0.00 in0.0 mm
04:35 PM 26.9°F-2.8°C 18.8°F-7.3°C 71% 3.0 mph SW4.8 kmh SW 6.0 mph9.7 kmh 30.00 in1015.9 mb 0.00 in0.0 mm 0.00 in0.0 mm 0.00 in0.0 mm
04:40 PM 27.0°F-2.8°C 18.9°F-7.3°C 71% Calm Calm -- 30.00 in1015.9 mb 0.00 in0.0 mm 0.00 in0.0 mm 0.00 in0.0 mm
04:45 PM 27.1°F-2.7°C 18.6°F-7.4°C 70% 3.0 mph SW4.8 kmh SW -- 30.00 in1015.9 mb 0.00 in0.0 mm 0.00 in0.0 mm 0.00 in0.0 mm
04:50 PM 27.3°F-2.6°C 18.8°F-7.3°C 70% 3.0 mph S4.8 kmh S -- 30.00 in1015.9 mb 0.00 in0.0 mm 0.00 in0.0 mm 0.00 in0.0 mm
04:55 PM 27.5°F-2.5°C 19.0°F-7.2°C 70% 2.0 mph S3.2 kmh S -- 30.00 in1015.9 mb 0.00 in0.0 mm 0.00 in0.0 mm 0.00 in0.0 mm
05:00 PM 27.7°F-2.4°C 19.5°F-6.9°C 71% 3.0 mph SSE4.8 kmh SSE -- 29.99 in1015.6 mb 0.00 in0.0 mm 0.00 in0.0 mm 0.00 in0.0 mm
05:05 PM 28.0°F-2.2°C 19.8°F-6.8°C 71% 4.0 mph S6.4 kmh S -- 29.99 in1015.6 mb 0.00 in0.0 mm 0.00 in0.0 mm 0.00 in0.0 mm
05:10 PM 28.3°F-2.1°C 20.1°F-6.6°C 71% 5.0 mph SSW8.0 kmh SSW -- 29.99 in1015.6 mb 0.00 in0.0 mm 0.00 in0.0 mm 0.00 in0.0 mm
05:15 PM 28.4°F-2.0°C 20.2°F-6.6°C 71% 6.0 mph S9.7 kmh S -- 29.99 in1015.6 mb 0.00 in0.0 mm 0.00 in0.0 mm 0.00 in0.0 mm
05:20 PM 28.5°F-1.9°C 20.3°F-6.5°C 71% 5.0 mph S8.0 kmh S 10.0 mph16.1 kmh 29.99 in1015.6 mb 0.00 in0.0 mm 0.00 in0.0 mm 0.00 in0.0 mm
05:25 PM 28.5°F-1.9°C 20.3°F-6.5°C 71% 6.0 mph SW9.7 kmh SW 10.0 mph16.1 kmh 29.99 in1015.6 mb 0.00 in0.0 mm 0.00 in0.0 mm 0.00 in0.0 mm
05:30 PM 28.5°F-1.9°C 20.3°F-6.5°C 71% 5.0 mph SSW8.0 kmh SSW -- 29.99 in1015.6 mb 0.00 in0.0 mm 0.00 in0.0 mm 0.00 in0.0 mm
05:35 PM 28.5°F-1.9°C 20.6°F-6.3°C 72% 2.0 mph SSW3.2 kmh SSW -- 29.99 in1015.6 mb 0.00 in0.0 mm 0.00 in0.0 mm 0.00 in0.0 mm
05:40 PM 28.5°F-1.9°C 20.6°F-6.3°C 72% 5.0 mph S8.0 kmh S -- 29.99 in1015.6 mb 0.00 in0.0 mm 0.00 in0.0 mm 0.00 in0.0 mm
05:45 PM 28.4°F-2.0°C 20.5°F-6.4°C 72% 4.0 mph SSW6.4 kmh SSW -- 29.99 in1015.6 mb 0.00 in0.0 mm 0.00 in0.0 mm 0.00 in0.0 mm
05:50 PM 28.3°F-2.1°C 20.4°F-6.4°C 72% 3.0 mph SSW4.8 kmh SSW -- 29.99 in1015.6 mb 0.00 in0.0 mm 0.00 in0.0 mm 0.00 in0.0 mm
05:55 PM 28.3°F-2.1°C 20.8°F-6.2°C 73% 4.0 mph SSW6.4 kmh SSW -- 29.99 in1015.6 mb 0.00 in0.0 mm 0.00 in0.0 mm 0.00 in0.0 mm
06:00 PM 28.3°F-2.1°C 20.8°F-6.2°C 73% 5.0 mph SW8.0 kmh SW -- 29.99 in1015.6 mb 0.00 in0.0 mm 0.00 in0.0 mm 0.00 in0.0 mm
06:05 PM 28.3°F-2.1°C 21.1°F-6.1°C 74% 2.0 mph SSW3.2 kmh SSW -- 29.99 in1015.6 mb 0.00 in0.0 mm 0.00 in0.0 mm 0.00 in0.0 mm
06:10 PM 28.3°F-2.1°C 21.1°F-6.1°C 74% 5.0 mph S8.0 kmh S 10.0 mph16.1 kmh 29.99 in1015.6 mb 0.00 in0.0 mm 0.00 in0.0 mm 0.00 in0.0 mm
06:15 PM 28.4°F-2.0°C 21.2°F-6.0°C 74% 5.0 mph S8.0 kmh S 10.0 mph16.1 kmh 29.99 in1015.6 mb 0.00 in0.0 mm 0.00 in0.0 mm 0.00 in0.0 mm
06:20 PM 28.4°F-2.0°C 21.2°F-6.0°C 74% 7.0 mph SSW11.3 kmh SSW -- 29.99 in1015.6 mb 0.00 in0.0 mm 0.00 in0.0 mm 0.00 in0.0 mm
06:25 PM 28.4°F-2.0°C 21.2°F-6.0°C 74% 5.0 mph S8.0 kmh S -- 29.99 in1015.6 mb 0.00 in0.0 mm 0.00 in0.0 mm 0.00 in0.0 mm
06:30 PM 28.4°F-2.0°C 21.5°F-5.8°C 75% 3.0 mph S4.8 kmh S -- 29.98 in1015.2 mb 0.00 in0.0 mm 0.00 in0.0 mm 0.00 in0.0 mm
06:35 PM 28.4°F-2.0°C 21.5°F-5.8°C 75% 3.0 mph SSW4.8 kmh SSW -- 29.98 in1015.2 mb 0.00 in0.0 mm 0.00 in0.0 mm 0.00 in0.0 mm
06:40 PM 28.3°F-2.1°C 21.4°F-5.9°C 75% 5.0 mph S8.0 kmh S -- 29.98 in1015.2 mb 0.00 in0.0 mm 0.00 in0.0 mm 0.00 in0.0 mm
06:45 PM 28.3°F-2.1°C 21.4°F-5.9°C 75% 6.0 mph S9.7 kmh S -- 29.98 in1015.2 mb 0.00 in0.0 mm 0.00 in0.0 mm 0.00 in0.0 mm
06:50 PM 28.3°F-2.1°C 21.4°F-5.9°C 75% 4.0 mph SSW6.4 kmh SSW -- 29.98 in1015.2 mb 0.00 in0.0 mm 0.00 in0.0 mm 0.00 in0.0 mm
06:55 PM 28.1°F-2.2°C 21.2°F-6.0°C 75% 2.0 mph S3.2 kmh S -- 29.98 in1015.2 mb 0.00 in0.0 mm 0.00 in0.0 mm 0.00 in0.0 mm
07:00 PM 28.1°F-2.2°C 21.5°F-5.8°C 76% 4.0 mph S6.4 kmh S 10.0 mph16.1 kmh 29.98 in1015.2 mb 0.00 in0.0 mm 0.00 in0.0 mm 0.00 in0.0 mm
07:05 PM 28.1°F-2.2°C 21.5°F-5.8°C 76% 2.0 mph SSW3.2 kmh SSW 10.0 mph16.1 kmh 29.98 in1015.2 mb 0.00 in0.0 mm 0.00 in0.0 mm 0.00 in0.0 mm
07:10 PM 28.1°F-2.2°C 21.8°F-5.7°C 77% 4.0 mph SW6.4 kmh SW -- 29.98 in1015.2 mb 0.00 in0.0 mm 0.00 in0.0 mm 0.00 in0.0 mm
07:15 PM 28.2°F-2.1°C 21.9°F-5.6°C 77% 5.0 mph SW8.0 kmh SW -- 29.99 in1015.6 mb 0.00 in0.0 mm 0.00 in0.0 mm 0.00 in0.0 mm
07:20 PM 28.3°F-2.1°C 22.0°F-5.6°C 77% 5.0 mph SW8.0 kmh SW -- 29.99 in1015.6 mb 0.00 in0.0 mm 0.00 in0.0 mm 0.00 in0.0 mm
07:25 PM 28.3°F-2.1°C 22.0°F-5.6°C 77% 2.0 mph SW3.2 kmh SW -- 29.99 in1015.6 mb 0.00 in0.0 mm 0.00 in0.0 mm 0.00 in0.0 mm
07:30 PM 28.3°F-2.1°C 22.3°F-5.4°C 78% 4.0 mph SW6.4 kmh SW -- 29.99 in1015.6 mb 0.00 in0.0 mm 0.00 in0.0 mm 0.00 in0.0 mm
07:35 PM 28.4°F-2.0°C 22.4°F-5.3°C 78% 4.0 mph SW6.4 kmh SW -- 29.99 in1015.6 mb 0.00 in0.0 mm 0.00 in0.0 mm 0.00 in0.0 mm
07:40 PM 28.5°F-1.9°C 22.5°F-5.3°C 78% 4.0 mph SW6.4 kmh SW -- 29.99 in1015.6 mb 0.00 in0.0 mm 0.00 in0.0 mm 0.00 in0.0 mm
07:45 PM 28.5°F-1.9°C 22.5°F-5.3°C 78% 4.0 mph SW6.4 kmh SW -- 29.99 in1015.6 mb 0.00 in0.0 mm 0.00 in0.0 mm 0.00 in0.0 mm
07:50 PM 28.7°F-1.8°C 22.7°F-5.2°C 78% 3.0 mph SW4.8 kmh SW 7.0 mph11.3 kmh 29.99 in1015.6 mb 0.00 in0.0 mm 0.00 in0.0 mm 0.00 in0.0 mm
07:55 PM 28.6°F-1.9°C 22.6°F-5.2°C 78% 4.0 mph SW6.4 kmh SW 7.0 mph11.3 kmh 29.99 in1015.6 mb 0.00 in0.0 mm 0.00 in0.0 mm 0.00 in0.0 mm
08:00 PM 28.7°F-1.8°C 23.0°F-5.0°C 79% 4.0 mph SW6.4 kmh SW -- 29.98 in1015.2 mb 0.00 in0.0 mm 0.00 in0.0 mm 0.00 in0.0 mm
08:05 PM 28.8°F-1.8°C 23.1°F-4.9°C 79% 3.0 mph SW4.8 kmh SW -- 29.98 in1015.2 mb 0.00 in0.0 mm 0.00 in0.0 mm 0.00 in0.0 mm
08:10 PM 28.7°F-1.8°C 23.0°F-5.0°C 79% 3.0 mph SW4.8 kmh SW -- 29.98 in1015.2 mb 0.00 in0.0 mm 0.00 in0.0 mm 0.00 in0.0 mm
08:15 PM 28.8°F-1.8°C 23.1°F-4.9°C 79% 3.0 mph SW4.8 kmh SW -- 29.98 in1015.2 mb 0.00 in0.0 mm 0.00 in0.0 mm 0.00 in0.0 mm
08:20 PM 28.8°F-1.8°C 23.1°F-4.9°C 79% 4.0 mph SW6.4 kmh SW -- 29.98 in1015.2 mb 0.00 in0.0 mm 0.00 in0.0 mm 0.00 in0.0 mm
08:25 PM 28.8°F-1.8°C 23.4°F-4.8°C 80% 5.0 mph SW8.0 kmh SW -- 29.98 in1015.2 mb 0.00 in0.0 mm 0.00 in0.0 mm 0.00 in0.0 mm
08:30 PM 28.8°F-1.8°C 23.4°F-4.8°C 80% 2.0 mph SW3.2 kmh SW -- 29.98 in1015.2 mb 0.00 in0.0 mm 0.00 in0.0 mm 0.00 in0.0 mm
08:35 PM 28.8°F-1.8°C 23.4°F-4.8°C 80% 4.0 mph SSW6.4 kmh SSW -- 29.98 in1015.2 mb 0.00 in0.0 mm 0.00 in0.0 mm 0.00 in0.0 mm
08:40 PM 28.8°F-1.8°C 23.4°F-4.8°C 80% 3.0 mph SSW4.8 kmh SSW 7.0 mph11.3 kmh 29.97 in1014.9 mb 0.00 in0.0 mm 0.00 in0.0 mm 0.00 in0.0 mm
08:45 PM 28.9°F-1.7°C 23.8°F-4.6°C 81% 5.0 mph SW8.0 kmh SW 7.0 mph11.3 kmh 29.98 in1015.2 mb 0.00 in0.0 mm 0.00 in0.0 mm 0.00 in0.0 mm
08:50 PM 28.9°F-1.7°C 23.8°F-4.6°C 81% 2.0 mph SW3.2 kmh SW -- 29.98 in1015.2 mb 0.00 in0.0 mm 0.00 in0.0 mm 0.00 in0.0 mm
08:55 PM 28.9°F-1.7°C 23.8°F-4.6°C 81% 3.0 mph SW4.8 kmh SW -- 29.98 in1015.2 mb 0.00 in0.0 mm 0.00 in0.0 mm 0.00 in0.0 mm
09:00 PM 29.0°F-1.7°C 23.9°F-4.5°C 81% 4.0 mph S6.4 kmh S -- 29.97 in1014.9 mb 0.00 in0.0 mm 0.00 in0.0 mm 0.00 in0.0 mm
09:05 PM 29.0°F-1.7°C 24.2°F-4.3°C 82% 4.0 mph SSW6.4 kmh SSW -- 29.97 in1014.9 mb 0.00 in0.0 mm 0.00 in0.0 mm 0.00 in0.0 mm
09:10 PM 29.1°F-1.6°C 24.3°F-4.3°C 82% 8.0 mph SW12.9 kmh SW -- 29.96 in1014.6 mb 0.00 in0.0 mm 0.00 in0.0 mm 0.00 in0.0 mm
09:15 PM 29.2°F-1.6°C 24.4°F-4.2°C 82% 7.0 mph S11.3 kmh S -- 29.96 in1014.6 mb 0.00 in0.0 mm 0.00 in0.0 mm 0.00 in0.0 mm
09:20 PM 29.3°F-1.5°C 24.5°F-4.2°C 82% 5.0 mph SW8.0 kmh SW -- 29.96 in1014.6 mb 0.00 in0.0 mm 0.00 in0.0 mm 0.00 in0.0 mm
09:25 PM 29.3°F-1.5°C 24.5°F-4.2°C 82% 9.0 mph SSW14.5 kmh SSW -- 29.95 in1014.2 mb 0.00 in0.0 mm 0.00 in0.0 mm 0.00 in0.0 mm
09:30 PM 29.5°F-1.4°C 25.0°F-3.9°C 83% 9.0 mph SSW14.5 kmh SSW 9.0 mph14.5 kmh 29.95 in1014.2 mb 0.00 in0.0 mm 0.00 in0.0 mm 0.00 in0.0 mm
09:35 PM 29.6°F-1.3°C 25.1°F-3.8°C 83% 3.0 mph S4.8 kmh S 9.0 mph14.5 kmh 29.95 in1014.2 mb 0.00 in0.0 mm 0.00 in0.0 mm 0.00 in0.0 mm
09:40 PM 29.7°F-1.3°C 25.2°F-3.8°C 83% 6.0 mph SW9.7 kmh SW -- 29.95 in1014.2 mb 0.00 in0.0 mm 0.00 in0.0 mm 0.00 in0.0 mm
09:45 PM 29.7°F-1.3°C 25.2°F-3.8°C 83% 3.0 mph SW4.8 kmh SW -- 29.95 in1014.2 mb 0.00 in0.0 mm 0.00 in0.0 mm 0.00 in0.0 mm
09:50 PM 29.7°F-1.3°C 25.5°F-3.6°C 84% 4.0 mph SW6.4 kmh SW -- 29.95 in1014.2 mb 0.00 in0.0 mm 0.00 in0.0 mm 0.00 in0.0 mm
09:55 PM 29.7°F-1.3°C 25.5°F-3.6°C 84% 7.0 mph SW11.3 kmh SW -- 29.95 in1014.2 mb 0.00 in0.0 mm 0.00 in0.0 mm 0.00 in0.0 mm
10:00 PM 29.7°F-1.3°C 25.5°F-3.6°C 84% 5.0 mph SW8.0 kmh SW -- 29.96 in1014.6 mb 0.00 in0.0 mm 0.00 in0.0 mm 0.00 in0.0 mm
10:05 PM 29.7°F-1.3°C 25.5°F-3.6°C 84% 2.0 mph SW3.2 kmh SW -- 29.95 in1014.2 mb 0.00 in0.0 mm 0.00 in0.0 mm 0.00 in0.0 mm
10:10 PM 29.7°F-1.3°C 25.5°F-3.6°C 84% 4.0 mph SW6.4 kmh SW -- 29.95 in1014.2 mb 0.00 in0.0 mm 0.00 in0.0 mm 0.00 in0.0 mm
10:15 PM 29.7°F-1.3°C 25.5°F-3.6°C 84% 3.0 mph SW4.8 kmh SW -- 29.95 in1014.2 mb 0.00 in0.0 mm 0.00 in0.0 mm 0.00 in0.0 mm
10:20 PM 29.7°F-1.3°C 25.8°F-3.4°C 85% 2.0 mph SW3.2 kmh SW 5.0 mph8.0 kmh 29.95 in1014.2 mb 0.00 in0.0 mm 0.00 in0.0 mm 0.00 in0.0 mm
10:25 PM 29.6°F-1.3°C 25.7°F-3.5°C 85% 4.0 mph SSW6.4 kmh SSW 5.0 mph8.0 kmh 29.95 in1014.2 mb 0.00 in0.0 mm 0.00 in0.0 mm 0.00 in0.0 mm
10:30 PM 29.7°F-1.3°C 25.8°F-3.4°C 85% 2.0 mph SW3.2 kmh SW -- 29.95 in1014.2 mb 0.00 in0.0 mm 0.00 in0.0 mm 0.00 in0.0 mm
10:35 PM 29.7°F-1.3°C 25.8°F-3.4°C 85% 5.0 mph SW8.0 kmh SW -- 29.95 in1014.2 mb 0.00 in0.0 mm 0.00 in0.0 mm 0.00 in0.0 mm
10:40 PM 29.8°F-1.2°C 25.9°F-3.4°C 85% 4.0 mph SW6.4 kmh SW -- 29.94 in1013.9 mb 0.00 in0.0 mm 0.00 in0.0 mm 0.00 in0.0 mm
10:45 PM 29.8°F-1.2°C 26.1°F-3.3°C 86% 5.0 mph SW8.0 kmh SW -- 29.94 in1013.9 mb 0.00 in0.0 mm 0.00 in0.0 mm 0.00 in0.0 mm
10:50 PM 29.9°F-1.2°C 26.2°F-3.2°C 86% 2.0 mph SW3.2 kmh SW -- 29.95 in1014.2 mb 0.00 in0.0 mm 0.00 in0.0 mm 0.00 in0.0 mm
10:55 PM 29.9°F-1.2°C 26.2°F-3.2°C 86% 4.0 mph SW6.4 kmh SW -- 29.95 in1014.2 mb 0.00 in0.0 mm 0.00 in0.0 mm 0.00 in0.0 mm
11:00 PM 29.9°F-1.2°C 26.2°F-3.2°C 86% 3.0 mph SW4.8 kmh SW -- 29.95 in1014.2 mb 0.00 in0.0 mm 0.00 in0.0 mm 0.00 in0.0 mm
11:05 PM 29.9°F-1.2°C 26.2°F-3.2°C 86% 2.0 mph SW3.2 kmh SW -- 29.95 in1014.2 mb 0.00 in0.0 mm 0.00 in0.0 mm 0.00 in0.0 mm
11:10 PM 29.9°F-1.2°C 26.2°F-3.2°C 86% 6.0 mph SW9.7 kmh SW 6.0 mph9.7 kmh 29.94 in1013.9 mb 0.00 in0.0 mm 0.00 in0.0 mm 0.00 in0.0 mm
11:15 PM 29.9°F-1.2°C 26.2°F-3.2°C 86% 5.0 mph SW8.0 kmh SW 6.0 mph9.7 kmh 29.94 in1013.9 mb 0.00 in0.0 mm 0.00 in0.0 mm 0.00 in0.0 mm
11:20 PM 29.9°F-1.2°C 26.2°F-3.2°C 86% 2.0 mph SW3.2 kmh SW -- 29.94 in1013.9 mb 0.00 in0.0 mm 0.00 in0.0 mm 0.00 in0.0 mm
11:25 PM 29.8°F-1.2°C 26.1°F-3.3°C 86% 4.0 mph SW6.4 kmh SW -- 29.94 in1013.9 mb 0.00 in0.0 mm 0.00 in0.0 mm 0.00 in0.0 mm
11:30 PM 29.7°F-1.3°C 26.0°F-3.3°C 86% 2.0 mph SW3.2 kmh SW -- 29.94 in1013.9 mb 0.00 in0.0 mm 0.00 in0.0 mm 0.00 in0.0 mm
11:35 PM 29.6°F-1.3°C 25.9°F-3.4°C 86% 2.0 mph SW3.2 kmh SW -- 29.93 in1013.5 mb 0.00 in0.0 mm 0.00 in0.0 mm 0.00 in0.0 mm
11:40 PM 29.6°F-1.3°C 25.9°F-3.4°C 86% 2.0 mph SW3.2 kmh SW -- 29.93 in1013.5 mb 0.00 in0.0 mm 0.00 in0.0 mm 0.00 in0.0 mm
11:45 PM 29.6°F-1.3°C 25.9°F-3.4°C 86% 1.0 mph SW1.6 kmh SW -- 29.94 in1013.9 mb 0.00 in0.0 mm 0.00 in0.0 mm 0.00 in0.0 mm
11:50 PM 29.6°F-1.3°C 26.2°F-3.2°C 87% Calm Calm -- 29.93 in1013.5 mb 0.00 in0.0 mm 0.00 in0.0 mm 0.00 in0.0 mm
11:55 PM 29.6°F-1.3°C 26.2°F-3.2°C 87% Calm Calm -- 29.93 in1013.5 mb 0.00 in0.0 mm 0.00 in0.0 mm 0.00 in0.0 mm